< Typhoon 201509 2015 Season Typhoon 201511 >
Typhoon 201510 (LINFA)
General InformationTrack Information on Google MapsDetailed Wind InformationForecast History on Google MapsAccess Analytics MapList of All Images || NewsDisaster Info.WeblogTrackbackTyphoon FrontTwiphoonTyphoon Now!Typhoon ImaginationDisaster Info. XMLResourceGoogle EarthGE AnimationAtom FeedGeoJSON
Detalied Best Track (Time Zone = UTC)
Year Month Day Hour Lat. Long. Pressure (hPa) Wind (kt) Class Image Chart
2015 7 1 18 13.4 129.8 1002 0 2 Image Chart
2015 7 2 00 13.7 129.5 1002 0 2 Image Chart
2015 7 2 06 14.2 129.0 1002 0 2 Image Chart
2015 7 2 12 14.6 128.4 998 35 3 Image Chart
2015 7 2 18 14.8 127.4 998 35 3 Image Chart
2015 7 3 00 15.0 126.7 998 35 3 Image Chart
2015 7 3 06 15.1 126.1 994 40 3 Image Chart
2015 7 3 12 15.2 125.4 990 40 3 Image Chart
2015 7 3 18 15.4 125.0 990 40 3 Image Chart
2015 7 4 00 16.1 124.6 990 40 3 Image Chart
2015 7 4 06 16.5 123.8 985 45 3 Image Chart
2015 7 4 12 16.8 123.0 985 45 3 Image Chart
2015 7 4 18 17.0 122.6 985 45 3 Image Chart
2015 7 5 00 17.5 122.0 990 40 3 Image Chart
2015 7 5 06 18.0 120.3 992 40 3 Image Chart
2015 7 5 12 17.9 119.8 992 40 3 Image Chart
2015 7 5 18 18.2 119.5 992 40 3 Image Chart
2015 7 6 00 18.7 119.4 992 40 3 Image Chart
2015 7 6 06 19.2 119.3 992 40 3 Image Chart
2015 7 6 12 19.5 119.3 992 40 3 Image Chart
2015 7 6 18 19.9 119.1 990 40 3 Image Chart
2015 7 7 00 20.2 118.9 990 40 3 Image Chart
2015 7 7 06 20.5 118.9 985 45 3 Image Chart
2015 7 7 12 20.8 118.7 985 45 3 Image Chart
2015 7 7 18 21.1 118.7 985 45 3 Image Chart
2015 7 8 00 21.5 118.7 980 50 4 Image Chart
2015 7 8 06 21.8 118.7 980 50 4 Image Chart
2015 7 8 12 22.2 118.4 980 50 4 Image Chart
2015 7 8 18 22.5 117.7 980 50 4 Image Chart
2015 7 9 00 22.7 116.9 980 50 4 Image Chart
2015 7 9 06 22.9 115.6 985 50 4 Image Chart
2015 7 9 12 22.9 114.4 992 45 3 Image Chart
2015 7 9 18 22.3 113.0 996 40 3 Image Chart
2015 7 10 00 21.4 111.2 1000 0 2 Image Chart
Japan Meteorological Agency Best Track Data | Correction Date : 2015-08-21
< Typhoon 201509 2015 Season Typhoon 201511 >

Help